sensor_id;sensor_type;location;lat;lon;timestamp;temperature;humidity
42037;DHT22;30340;52.004;5.908;2023-02-18T00:01:54;11.50;91.60
42037;DHT22;30340;52.004;5.908;2023-02-18T00:04:19;11.50;91.50
42037;DHT22;30340;52.004;5.908;2023-02-18T00:06:45;11.50;91.50
42037;DHT22;30340;52.004;5.908;2023-02-18T00:09:11;11.50;91.60
42037;DHT22;30340;52.004;5.908;2023-02-18T00:11:37;11.50;91.60
42037;DHT22;30340;52.004;5.908;2023-02-18T00:14:05;11.50;91.60
42037;DHT22;30340;52.004;5.908;2023-02-18T00:16:31;11.40;91.60
42037;DHT22;30340;52.004;5.908;2023-02-18T00:19:02;11.40;91.60
42037;DHT22;30340;52.004;5.908;2023-02-18T00:21:29;11.40;91.70
42037;DHT22;30340;52.004;5.908;2023-02-18T00:23:55;11.40;91.60
42037;DHT22;30340;52.004;5.908;2023-02-18T00:26:20;11.40;91.60
42037;DHT22;30340;52.004;5.908;2023-02-18T00:28:47;11.40;91.70
42037;DHT22;30340;52.004;5.908;2023-02-18T00:33:49;11.30;91.70
42037;DHT22;30340;52.004;5.908;2023-02-18T00:36:17;11.30;91.80
42037;DHT22;30340;52.004;5.908;2023-02-18T00:38:49;11.20;91.90
42037;DHT22;30340;52.004;5.908;2023-02-18T00:41:15;11.20;91.90
42037;DHT22;30340;52.004;5.908;2023-02-18T00:43:41;11.20;91.90
42037;DHT22;30340;52.004;5.908;2023-02-18T00:46:07;11.20;92.10
42037;DHT22;30340;52.004;5.908;2023-02-18T00:48:34;11.20;92.10
42037;DHT22;30340;52.004;5.908;2023-02-18T00:51:00;11.10;92.10
42037;DHT22;30340;52.004;5.908;2023-02-18T00:53:27;11.10;92.10
42037;DHT22;30340;52.004;5.908;2023-02-18T00:55:53;11.20;92.10
42037;DHT22;30340;52.004;5.908;2023-02-18T00:58:19;11.20;92.20
42037;DHT22;30340;52.004;5.908;2023-02-18T01:00:45;11.10;92.10
42037;DHT22;30340;52.004;5.908;2023-02-18T01:03:11;11.10;92.10
42037;DHT22;30340;52.004;5.908;2023-02-18T01:05:37;11.20;92.10
42037;DHT22;30340;52.004;5.908;2023-02-18T01:08:04;11.20;92.10
42037;DHT22;30340;52.004;5.908;2023-02-18T01:10:30;11.20;92.00
42037;DHT22;30340;52.004;5.908;2023-02-18T01:12:56;11.20;92.00
42037;DHT22;30340;52.004;5.908;2023-02-18T01:15:22;11.20;92.00
42037;DHT22;30340;52.004;5.908;2023-02-18T01:17:47;11.10;92.00
42037;DHT22;30340;52.004;5.908;2023-02-18T01:20:15;11.10;92.10
42037;DHT22;30340;52.004;5.908;2023-02-18T01:22:41;11.10;92.10
42037;DHT22;30340;52.004;5.908;2023-02-18T01:25:08;11.10;92.10
42037;DHT22;30340;52.004;5.908;2023-02-18T01:27:33;11.20;92.10
42037;DHT22;30340;52.004;5.908;2023-02-18T01:29:59;11.10;92.10
42037;DHT22;30340;52.004;5.908;2023-02-18T01:32:25;11.10;92.10
42037;DHT22;30340;52.004;5.908;2023-02-18T01:34:50;11.10;92.20
42037;DHT22;30340;52.004;5.908;2023-02-18T01:37:16;11.10;92.20
42037;DHT22;30340;52.004;5.908;2023-02-18T01:39:41;11.10;92.10
42037;DHT22;30340;52.004;5.908;2023-02-18T01:42:17;11.10;92.20
42037;DHT22;30340;52.004;5.908;2023-02-18T01:44:45;11.20;92.20
42037;DHT22;30340;52.004;5.908;2023-02-18T01:47:10;11.20;92.20
42037;DHT22;30340;52.004;5.908;2023-02-18T01:49:37;11.10;92.10
42037;DHT22;30340;52.004;5.908;2023-02-18T01:52:07;11.10;92.20
42037;DHT22;30340;52.004;5.908;2023-02-18T01:54:43;11.20;92.20
42037;DHT22;30340;52.004;5.908;2023-02-18T01:57:17;11.20;92.20
42037;DHT22;30340;52.004;5.908;2023-02-18T01:59:49;11.20;92.10
42037;DHT22;30340;52.004;5.908;2023-02-18T02:02:21;11.20;92.10
42037;DHT22;30340;52.004;5.908;2023-02-18T02:04:49;11.20;92.10
42037;DHT22;30340;52.004;5.908;2023-02-18T02:07:15;11.20;92.10
42037;DHT22;30340;52.004;5.908;2023-02-18T02:09:43;11.20;92.10
42037;DHT22;30340;52.004;5.908;2023-02-18T02:17:30;11.20;92.10
42037;DHT22;30340;52.004;5.908;2023-02-18T02:23:01;11.30;92.10
42037;DHT22;30340;52.004;5.908;2023-02-18T02:31:52;11.20;92.20
42037;DHT22;30340;52.004;5.908;2023-02-18T02:34:25;11.20;92.30
42037;DHT22;30340;52.004;5.908;2023-02-18T02:50:21;11.30;92.20
42037;DHT22;30340;52.004;5.908;2023-02-18T02:52:56;11.30;92.20
42037;DHT22;30340;52.004;5.908;2023-02-18T02:55:24;11.30;92.30
42037;DHT22;30340;52.004;5.908;2023-02-18T02:57:52;11.30;92.30
42037;DHT22;30340;52.004;5.908;2023-02-18T03:00:26;11.30;92.30
42037;DHT22;30340;52.004;5.908;2023-02-18T03:05:46;11.30;92.40
42037;DHT22;30340;52.004;5.908;2023-02-18T03:13:31;11.30;92.50
42037;DHT22;30340;52.004;5.908;2023-02-18T03:18:59;11.30;92.60
42037;DHT22;30340;52.004;5.908;2023-02-18T03:21:30;11.30;92.60
42037;DHT22;30340;52.004;5.908;2023-02-18T03:24:01;11.30;92.70
42037;DHT22;30340;52.004;5.908;2023-02-18T03:26:29;11.40;92.70
42037;DHT22;30340;52.004;5.908;2023-02-18T03:28:59;11.40;92.80
42037;DHT22;30340;52.004;5.908;2023-02-18T03:31:28;11.40;92.90
42037;DHT22;30340;52.004;5.908;2023-02-18T03:34:04;11.40;92.90
42037;DHT22;30340;52.004;5.908;2023-02-18T03:36:33;11.40;92.90
42037;DHT22;30340;52.004;5.908;2023-02-18T03:39:11;11.40;92.90
42037;DHT22;30340;52.004;5.908;2023-02-18T03:41:38;11.50;92.90
42037;DHT22;30340;52.004;5.908;2023-02-18T03:44:06;11.50;92.80
42037;DHT22;30340;52.004;5.908;2023-02-18T03:46:33;11.50;92.90
42037;DHT22;30340;52.004;5.908;2023-02-18T03:48:59;11.50;92.90
42037;DHT22;30340;52.004;5.908;2023-02-18T03:51:25;11.50;92.90
42037;DHT22;30340;52.004;5.908;2023-02-18T03:53:51;11.60;92.90
42037;DHT22;30340;52.004;5.908;2023-02-18T03:56:17;11.60;92.90
42037;DHT22;30340;52.004;5.908;2023-02-18T03:58:42;11.60;92.90
42037;DHT22;30340;52.004;5.908;2023-02-18T04:01:08;11.60;92.90
42037;DHT22;30340;52.004;5.908;2023-02-18T04:03:34;11.60;92.90
42037;DHT22;30340;52.004;5.908;2023-02-18T04:05:59;11.70;92.90
42037;DHT22;30340;52.004;5.908;2023-02-18T04:08:25;11.60;92.80
42037;DHT22;30340;52.004;5.908;2023-02-18T04:10:50;11.70;92.80
42037;DHT22;30340;52.004;5.908;2023-02-18T04:13:16;11.70;92.90
42037;DHT22;30340;52.004;5.908;2023-02-18T04:15:45;11.70;92.90
42037;DHT22;30340;52.004;5.908;2023-02-18T04:18:13;11.60;93.00
42037;DHT22;30340;52.004;5.908;2023-02-18T04:20:38;11.70;93.10
42037;DHT22;30340;52.004;5.908;2023-02-18T04:23:04;11.70;93.00
42037;DHT22;30340;52.004;5.908;2023-02-18T04:25:30;11.70;92.90
42037;DHT22;30340;52.004;5.908;2023-02-18T04:27:55;11.70;92.90
42037;DHT22;30340;52.004;5.908;2023-02-18T04:30:22;11.70;92.90
42037;DHT22;30340;52.004;5.908;2023-02-18T04:32:48;11.70;93.00
42037;DHT22;30340;52.004;5.908;2023-02-18T04:35:13;11.70;93.00
42037;DHT22;30340;52.004;5.908;2023-02-18T04:37:39;11.70;93.00
42037;DHT22;30340;52.004;5.908;2023-02-18T04:40:05;11.70;93.10
42037;DHT22;30340;52.004;5.908;2023-02-18T04:42:31;11.70;93.20
42037;DHT22;30340;52.004;5.908;2023-02-18T04:44:57;11.70;93.20
42037;DHT22;30340;52.004;5.908;2023-02-18T04:47:23;11.70;93.20
42037;DHT22;30340;52.004;5.908;2023-02-18T04:49:48;11.70;93.10
42037;DHT22;30340;52.004;5.908;2023-02-18T04:52:14;11.70;93.20
42037;DHT22;30340;52.004;5.908;2023-02-18T04:54:40;11.70;93.30
42037;DHT22;30340;52.004;5.908;2023-02-18T04:57:05;11.70;93.20
42037;DHT22;30340;52.004;5.908;2023-02-18T04:59:31;11.70;93.20
42037;DHT22;30340;52.004;5.908;2023-02-18T05:01:56;11.70;93.30
42037;DHT22;30340;52.004;5.908;2023-02-18T05:04:22;11.70;93.40
42037;DHT22;30340;52.004;5.908;2023-02-18T05:06:48;11.70;93.60
42037;DHT22;30340;52.004;5.908;2023-02-18T05:09:13;11.70;93.60
42037;DHT22;30340;52.004;5.908;2023-02-18T05:11:41;11.70;93.60
42037;DHT22;30340;52.004;5.908;2023-02-18T05:14:06;11.70;93.60
42037;DHT22;30340;52.004;5.908;2023-02-18T05:16:32;11.70;93.60
42037;DHT22;30340;52.004;5.908;2023-02-18T05:18:57;11.70;93.70
42037;DHT22;30340;52.004;5.908;2023-02-18T05:21:23;11.70;93.60
42037;DHT22;30340;52.004;5.908;2023-02-18T05:23:48;11.70;93.60
42037;DHT22;30340;52.004;5.908;2023-02-18T05:26:14;11.70;93.50
42037;DHT22;30340;52.004;5.908;2023-02-18T05:28:39;11.70;93.60
42037;DHT22;30340;52.004;5.908;2023-02-18T05:31:05;11.70;93.70
42037;DHT22;30340;52.004;5.908;2023-02-18T05:33:31;11.70;93.70
42037;DHT22;30340;52.004;5.908;2023-02-18T05:35:56;11.70;93.70
42037;DHT22;30340;52.004;5.908;2023-02-18T05:38:22;11.70;93.60
42037;DHT22;30340;52.004;5.908;2023-02-18T05:40:48;11.70;93.70
42037;DHT22;30340;52.004;5.908;2023-02-18T05:43:14;11.70;93.60
42037;DHT22;30340;52.004;5.908;2023-02-18T05:45:39;11.70;93.60
42037;DHT22;30340;52.004;5.908;2023-02-18T05:48:05;11.70;93.70
42037;DHT22;30340;52.004;5.908;2023-02-18T05:50:31;11.60;93.70
42037;DHT22;30340;52.004;5.908;2023-02-18T05:52:57;11.70;93.70
42037;DHT22;30340;52.004;5.908;2023-02-18T05:55:22;11.60;93.80
42037;DHT22;30340;52.004;5.908;2023-02-18T05:57:48;11.60;93.80
42037;DHT22;30340;52.004;5.908;2023-02-18T06:00:14;11.60;93.80
42037;DHT22;30340;52.004;5.908;2023-02-18T06:02:40;11.60;93.80
42037;DHT22;30340;52.004;5.908;2023-02-18T06:05:06;11.50;93.90
42037;DHT22;30340;52.004;5.908;2023-02-18T06:07:32;11.50;94.00
42037;DHT22;30340;52.004;5.908;2023-02-18T06:09:57;11.60;94.00
42037;DHT22;30340;52.004;5.908;2023-02-18T06:12:23;11.50;94.00
42037;DHT22;30340;52.004;5.908;2023-02-18T06:14:48;11.60;94.00
42037;DHT22;30340;52.004;5.908;2023-02-18T06:17:14;11.60;93.90
42037;DHT22;30340;52.004;5.908;2023-02-18T06:19:40;11.60;93.90
42037;DHT22;30340;52.004;5.908;2023-02-18T06:22:06;11.60;93.90
42037;DHT22;30340;52.004;5.908;2023-02-18T06:24:32;11.50;93.80
42037;DHT22;30340;52.004;5.908;2023-02-18T06:26:58;11.50;93.90
42037;DHT22;30340;52.004;5.908;2023-02-18T06:29:24;11.50;94.00
42037;DHT22;30340;52.004;5.908;2023-02-18T06:31:49;11.50;94.00
42037;DHT22;30340;52.004;5.908;2023-02-18T06:34:15;11.50;94.00
42037;DHT22;30340;52.004;5.908;2023-02-18T06:36:43;11.50;94.00
42037;DHT22;30340;52.004;5.908;2023-02-18T06:39:09;11.50;94.00
42037;DHT22;30340;52.004;5.908;2023-02-18T06:41:35;11.50;94.00
42037;DHT22;30340;52.004;5.908;2023-02-18T06:44:00;11.50;94.10
42037;DHT22;30340;52.004;5.908;2023-02-18T06:46:29;11.50;94.00
42037;DHT22;30340;52.004;5.908;2023-02-18T06:48:54;11.50;94.10
42037;DHT22;30340;52.004;5.908;2023-02-18T06:51:20;11.40;94.10
42037;DHT22;30340;52.004;5.908;2023-02-18T06:53:45;11.40;94.10
42037;DHT22;30340;52.004;5.908;2023-02-18T06:56:11;11.40;94.10
42037;DHT22;30340;52.004;5.908;2023-02-18T06:58:37;11.40;94.10
42037;DHT22;30340;52.004;5.908;2023-02-18T07:01:03;11.40;94.10
42037;DHT22;30340;52.004;5.908;2023-02-18T07:03:29;11.40;94.10
42037;DHT22;30340;52.004;5.908;2023-02-18T07:05:54;11.40;94.10
42037;DHT22;30340;52.004;5.908;2023-02-18T07:08:20;11.40;94.10
42037;DHT22;30340;52.004;5.908;2023-02-18T07:10:46;11.40;94.10
42037;DHT22;30340;52.004;5.908;2023-02-18T07:13:12;11.40;94.10
42037;DHT22;30340;52.004;5.908;2023-02-18T07:15:38;11.40;94.10
42037;DHT22;30340;52.004;5.908;2023-02-18T07:18:03;11.40;94.10
42037;DHT22;30340;52.004;5.908;2023-02-18T07:20:29;11.40;94.10
42037;DHT22;30340;52.004;5.908;2023-02-18T07:22:56;11.30;94.10
42037;DHT22;30340;52.004;5.908;2023-02-18T07:25:21;11.30;94.10
42037;DHT22;30340;52.004;5.908;2023-02-18T07:27:47;11.30;94.10
42037;DHT22;30340;52.004;5.908;2023-02-18T07:30:13;11.30;94.10
42037;DHT22;30340;52.004;5.908;2023-02-18T07:32:39;11.30;94.10
42037;DHT22;30340;52.004;5.908;2023-02-18T07:35:05;11.30;94.20
42037;DHT22;30340;52.004;5.908;2023-02-18T07:37:31;11.30;94.10
42037;DHT22;30340;52.004;5.908;2023-02-18T07:39:57;11.30;94.10
42037;DHT22;30340;52.004;5.908;2023-02-18T07:42:23;11.30;94.00
42037;DHT22;30340;52.004;5.908;2023-02-18T07:44:48;11.30;94.00
42037;DHT22;30340;52.004;5.908;2023-02-18T07:47:15;11.30;94.00
42037;DHT22;30340;52.004;5.908;2023-02-18T07:49:43;11.30;94.00
42037;DHT22;30340;52.004;5.908;2023-02-18T07:52:08;11.30;94.00
42037;DHT22;30340;52.004;5.908;2023-02-18T07:54:34;11.30;94.00
42037;DHT22;30340;52.004;5.908;2023-02-18T07:57:00;11.30;94.00
42037;DHT22;30340;52.004;5.908;2023-02-18T07:59:25;11.30;94.00
42037;DHT22;30340;52.004;5.908;2023-02-18T08:01:51;11.30;93.90
42037;DHT22;30340;52.004;5.908;2023-02-18T08:04:16;11.30;93.90
42037;DHT22;30340;52.004;5.908;2023-02-18T08:06:45;11.20;93.90
42037;DHT22;30340;52.004;5.908;2023-02-18T08:09:12;11.20;94.00
42037;DHT22;30340;52.004;5.908;2023-02-18T08:11:37;11.20;94.10
42037;DHT22;30340;52.004;5.908;2023-02-18T08:14:04;11.20;94.10
42037;DHT22;30340;52.004;5.908;2023-02-18T08:16:30;11.10;94.00
42037;DHT22;30340;52.004;5.908;2023-02-18T08:18:56;11.20;94.00
42037;DHT22;30340;52.004;5.908;2023-02-18T08:21:23;11.20;94.00
42037;DHT22;30340;52.004;5.908;2023-02-18T08:23:50;11.20;93.90
42037;DHT22;30340;52.004;5.908;2023-02-18T08:26:16;11.20;93.90
42037;DHT22;30340;52.004;5.908;2023-02-18T08:28:43;11.20;93.90
42037;DHT22;30340;52.004;5.908;2023-02-18T08:31:23;11.10;93.80
42037;DHT22;30340;52.004;5.908;2023-02-18T08:33:49;11.10;93.80
42037;DHT22;30340;52.004;5.908;2023-02-18T08:36:15;11.10;93.80
42037;DHT22;30340;52.004;5.908;2023-02-18T08:38:41;11.10;93.70
42037;DHT22;30340;52.004;5.908;2023-02-18T08:41:08;11.10;93.70
42037;DHT22;30340;52.004;5.908;2023-02-18T08:43:34;11.10;93.70
42037;DHT22;30340;52.004;5.908;2023-02-18T08:46:00;11.10;93.60
42037;DHT22;30340;52.004;5.908;2023-02-18T08:48:26;11.10;93.60
42037;DHT22;30340;52.004;5.908;2023-02-18T08:50:52;11.10;93.50
42037;DHT22;30340;52.004;5.908;2023-02-18T08:53:18;11.10;93.50
42037;DHT22;30340;52.004;5.908;2023-02-18T08:55:43;11.10;93.60
42037;DHT22;30340;52.004;5.908;2023-02-18T08:58:09;11.10;93.50
42037;DHT22;30340;52.004;5.908;2023-02-18T09:00:36;11.10;93.40
42037;DHT22;30340;52.004;5.908;2023-02-18T09:03:02;11.00;93.30
42037;DHT22;30340;52.004;5.908;2023-02-18T09:05:28;11.00;93.30
42037;DHT22;30340;52.004;5.908;2023-02-18T09:07:53;11.00;93.20
42037;DHT22;30340;52.004;5.908;2023-02-18T09:10:19;11.00;93.20
42037;DHT22;30340;52.004;5.908;2023-02-18T09:12:45;10.90;93.20
42037;DHT22;30340;52.004;5.908;2023-02-18T09:15:10;10.90;93.20
42037;DHT22;30340;52.004;5.908;2023-02-18T09:17:36;10.90;93.30
42037;DHT22;30340;52.004;5.908;2023-02-18T09:20:02;10.90;93.30
42037;DHT22;30340;52.004;5.908;2023-02-18T09:22:28;10.90;93.20
42037;DHT22;30340;52.004;5.908;2023-02-18T09:24:54;10.80;93.30
42037;DHT22;30340;52.004;5.908;2023-02-18T09:27:20;10.80;93.30
42037;DHT22;30340;52.004;5.908;2023-02-18T09:29:46;10.80;93.30
42037;DHT22;30340;52.004;5.908;2023-02-18T09:32:12;10.70;93.30
42037;DHT22;30340;52.004;5.908;2023-02-18T09:34:38;10.70;93.40
42037;DHT22;30340;52.004;5.908;2023-02-18T09:37:03;10.60;93.40
42037;DHT22;30340;52.004;5.908;2023-02-18T09:39:29;10.70;93.50
42037;DHT22;30340;52.004;5.908;2023-02-18T09:41:57;10.60;93.50
42037;DHT22;30340;52.004;5.908;2023-02-18T09:44:50;10.70;93.50
42037;DHT22;30340;52.004;5.908;2023-02-18T09:47:25;10.70;93.40
42037;DHT22;30340;52.004;5.908;2023-02-18T09:49:57;10.70;93.40
42037;DHT22;30340;52.004;5.908;2023-02-18T09:52:32;10.80;93.30
42037;DHT22;30340;52.004;5.908;2023-02-18T09:54:58;10.80;93.30
42037;DHT22;30340;52.004;5.908;2023-02-18T09:57:44;10.80;93.20
42037;DHT22;30340;52.004;5.908;2023-02-18T10:02:39;10.80;93.20
42037;DHT22;30340;52.004;5.908;2023-02-18T10:05:09;10.90;93.20
42037;DHT22;30340;52.004;5.908;2023-02-18T10:07:37;10.80;93.10
42037;DHT22;30340;52.004;5.908;2023-02-18T10:10:44;10.90;93.20
42037;DHT22;30340;52.004;5.908;2023-02-18T10:13:15;10.90;93.10
42037;DHT22;30340;52.004;5.908;2023-02-18T10:15:42;10.90;93.10
42037;DHT22;30340;52.004;5.908;2023-02-18T10:18:24;10.80;93.10
42037;DHT22;30340;52.004;5.908;2023-02-18T10:21:21;10.90;93.10
42037;DHT22;30340;52.004;5.908;2023-02-18T10:26:41;10.90;93.00
42037;DHT22;30340;52.004;5.908;2023-02-18T10:29:16;10.90;93.00
42037;DHT22;30340;52.004;5.908;2023-02-18T10:31:55;10.90;93.00
42037;DHT22;30340;52.004;5.908;2023-02-18T10:34:37;10.80;93.10
42037;DHT22;30340;52.004;5.908;2023-02-18T10:45:52;10.90;93.20
42037;DHT22;30340;52.004;5.908;2023-02-18T10:51:20;10.90;93.10
42037;DHT22;30340;52.004;5.908;2023-02-18T10:53:48;10.90;93.10
42037;DHT22;30340;52.004;5.908;2023-02-18T10:56:34;10.90;93.10
42037;DHT22;30340;52.004;5.908;2023-02-18T10:59:18;10.90;93.20
42037;DHT22;30340;52.004;5.908;2023-02-18T11:01:44;10.90;93.20
42037;DHT22;30340;52.004;5.908;2023-02-18T11:04:16;10.90;93.20
42037;DHT22;30340;52.004;5.908;2023-02-18T11:06:45;10.90;93.20
42037;DHT22;30340;52.004;5.908;2023-02-18T11:09:29;10.90;93.20
42037;DHT22;30340;52.004;5.908;2023-02-18T11:14:42;10.90;93.20
42037;DHT22;30340;52.004;5.908;2023-02-18T11:19:42;11.00;93.20
42037;DHT22;30340;52.004;5.908;2023-02-18T11:22:21;11.00;93.20
42037;DHT22;30340;52.004;5.908;2023-02-18T11:24:47;11.10;93.10
42037;DHT22;30340;52.004;5.908;2023-02-18T11:30:52;11.20;93.10
42037;DHT22;30340;52.004;5.908;2023-02-18T11:32:55;11.20;93.30
42037;DHT22;30340;52.004;5.908;2023-02-18T11:35:25;11.20;93.20
42037;DHT22;30340;52.004;5.908;2023-02-18T11:37:51;11.30;92.90
42037;DHT22;30340;52.004;5.908;2023-02-18T11:40:32;11.30;92.90
42037;DHT22;30340;52.004;5.908;2023-02-18T11:43:09;11.40;92.80
42037;DHT22;30340;52.004;5.908;2023-02-18T11:45:36;11.40;92.70
42037;DHT22;30340;52.004;5.908;2023-02-18T11:48:22;11.50;92.80
42037;DHT22;30340;52.004;5.908;2023-02-18T11:50:52;11.50;92.60
42037;DHT22;30340;52.004;5.908;2023-02-18T11:53:33;11.50;92.50
42037;DHT22;30340;52.004;5.908;2023-02-18T11:56:19;11.50;92.50
42037;DHT22;30340;52.004;5.908;2023-02-18T11:58:47;11.50;92.50
42037;DHT22;30340;52.004;5.908;2023-02-18T12:03:58;11.60;92.50
42037;DHT22;30340;52.004;5.908;2023-02-18T12:06:32;11.60;92.40
42037;DHT22;30340;52.004;5.908;2023-02-18T12:09:19;11.60;92.50
42037;DHT22;30340;52.004;5.908;2023-02-18T12:11:58;11.60;92.50
42037;DHT22;30340;52.004;5.908;2023-02-18T12:14:25;11.60;92.50
42037;DHT22;30340;52.004;5.908;2023-02-18T12:22:04;11.80;92.40
42037;DHT22;30340;52.004;5.908;2023-02-18T12:30:35;11.70;92.40
42037;DHT22;30340;52.004;5.908;2023-02-18T12:33:13;11.70;92.50
42037;DHT22;30340;52.004;5.908;2023-02-18T12:36:06;11.60;92.60
42037;DHT22;30340;52.004;5.908;2023-02-18T12:38:53;11.60;92.70
42037;DHT22;30340;52.004;5.908;2023-02-18T12:55:41;11.70;92.70
42037;DHT22;30340;52.004;5.908;2023-02-18T13:01:09;11.70;92.60
42037;DHT22;30340;52.004;5.908;2023-02-18T13:06:58;11.80;92.50
42037;DHT22;30340;52.004;5.908;2023-02-18T13:09:44;11.80;92.50
42037;DHT22;30340;52.004;5.908;2023-02-18T13:15:11;11.80;92.40
42037;DHT22;30340;52.004;5.908;2023-02-18T13:17:38;11.90;92.40
42037;DHT22;30340;52.004;5.908;2023-02-18T13:20:16;11.90;92.40
42037;DHT22;30340;52.004;5.908;2023-02-18T13:22:44;11.90;92.40
42037;DHT22;30340;52.004;5.908;2023-02-18T13:25:12;11.90;92.40
42037;DHT22;30340;52.004;5.908;2023-02-18T13:33:10;12.10;92.10
42037;DHT22;30340;52.004;5.908;2023-02-18T13:40:51;12.30;91.80
42037;DHT22;30340;52.004;5.908;2023-02-18T13:46:07;12.20;91.80
42037;DHT22;30340;52.004;5.908;2023-02-18T13:51:05;12.20;91.90
42037;DHT22;30340;52.004;5.908;2023-02-18T13:53:38;12.20;91.90
42037;DHT22;30340;52.004;5.908;2023-02-18T13:56:26;12.20;91.90
42037;DHT22;30340;52.004;5.908;2023-02-18T13:59:05;12.20;91.90
42037;DHT22;30340;52.004;5.908;2023-02-18T14:01:42;12.20;91.90
42037;DHT22;30340;52.004;5.908;2023-02-18T14:04:33;12.20;91.80
42037;DHT22;30340;52.004;5.908;2023-02-18T14:10:02;12.20;91.80
42037;DHT22;30340;52.004;5.908;2023-02-18T14:12:42;12.20;91.90
42037;DHT22;30340;52.004;5.908;2023-02-18T14:23:37;12.20;92.00
42037;DHT22;30340;52.004;5.908;2023-02-18T14:26:20;12.20;92.00
42037;DHT22;30340;52.004;5.908;2023-02-18T14:31:29;12.20;91.90
42037;DHT22;30340;52.004;5.908;2023-02-18T14:36:56;12.20;91.80
42037;DHT22;30340;52.004;5.908;2023-02-18T14:41:58;12.20;91.80
42037;DHT22;30340;52.004;5.908;2023-02-18T14:45:01;12.20;91.80
42037;DHT22;30340;52.004;5.908;2023-02-18T14:50:13;12.20;91.80
42037;DHT22;30340;52.004;5.908;2023-02-18T14:53:21;12.30;91.70
42037;DHT22;30340;52.004;5.908;2023-02-18T14:55:48;12.30;91.70
42037;DHT22;30340;52.004;5.908;2023-02-18T14:58:35;12.30;91.70
42037;DHT22;30340;52.004;5.908;2023-02-18T15:01:20;12.30;91.70
42037;DHT22;30340;52.004;5.908;2023-02-18T15:03:47;12.30;91.60
42037;DHT22;30340;52.004;5.908;2023-02-18T15:08:56;12.30;91.70
42037;DHT22;30340;52.004;5.908;2023-02-18T15:11:27;12.30;91.60
42037;DHT22;30340;52.004;5.908;2023-02-18T15:13:56;12.30;91.60
42037;DHT22;30340;52.004;5.908;2023-02-18T15:16:29;12.30;91.60
42037;DHT22;30340;52.004;5.908;2023-02-18T15:18:58;12.30;91.60
42037;DHT22;30340;52.004;5.908;2023-02-18T15:21:36;12.40;91.90
42037;DHT22;30340;52.004;5.908;2023-02-18T15:24:32;12.40;91.80
42037;DHT22;30340;52.004;5.908;2023-02-18T15:27:14;12.40;91.50
42037;DHT22;30340;52.004;5.908;2023-02-18T15:29:40;12.40;91.50
42037;DHT22;30340;52.004;5.908;2023-02-18T15:32:32;12.40;91.50
42037;DHT22;30340;52.004;5.908;2023-02-18T15:35:00;12.40;91.40
42037;DHT22;30340;52.004;5.908;2023-02-18T15:37:26;12.40;91.40
42037;DHT22;30340;52.004;5.908;2023-02-18T15:39:51;12.40;91.50
42037;DHT22;30340;52.004;5.908;2023-02-18T15:42:29;12.50;91.50
42037;DHT22;30340;52.004;5.908;2023-02-18T15:45:08;12.40;91.40
42037;DHT22;30340;52.004;5.908;2023-02-18T15:47:49;12.40;91.40
42037;DHT22;30340;52.004;5.908;2023-02-18T15:50:27;12.40;91.40
42037;DHT22;30340;52.004;5.908;2023-02-18T15:52:56;12.40;91.40
42037;DHT22;30340;52.004;5.908;2023-02-18T15:55:39;12.40;91.30
42037;DHT22;30340;52.004;5.908;2023-02-18T15:58:12;12.40;91.40
42037;DHT22;30340;52.004;5.908;2023-02-18T16:00:40;12.40;91.40
42037;DHT22;30340;52.004;5.908;2023-02-18T16:03:25;12.40;91.40
42037;DHT22;30340;52.004;5.908;2023-02-18T16:06:17;12.40;91.40
42037;DHT22;30340;52.004;5.908;2023-02-18T16:11:34;12.40;91.40
42037;DHT22;30340;52.004;5.908;2023-02-18T16:14:02;12.30;91.40
42037;DHT22;30340;52.004;5.908;2023-02-18T16:16:35;12.30;91.40
42037;DHT22;30340;52.004;5.908;2023-02-18T16:19:01;12.30;91.40
42037;DHT22;30340;52.004;5.908;2023-02-18T16:21:43;12.30;91.40
42037;DHT22;30340;52.004;5.908;2023-02-18T16:24:24;12.30;91.40
42037;DHT22;30340;52.004;5.908;2023-02-18T16:26:52;12.30;91.40
42037;DHT22;30340;52.004;5.908;2023-02-18T16:31:51;12.20;91.40
42037;DHT22;30340;52.004;5.908;2023-02-18T16:34:17;12.20;91.40
42037;DHT22;30340;52.004;5.908;2023-02-18T16:36:43;12.20;91.40
42037;DHT22;30340;52.004;5.908;2023-02-18T16:39:31;12.20;91.40
42037;DHT22;30340;52.004;5.908;2023-02-18T16:41:57;12.20;91.50
42037;DHT22;30340;52.004;5.908;2023-02-18T16:44:23;12.20;91.50
42037;DHT22;30340;52.004;5.908;2023-02-18T16:46:48;12.20;91.50
42037;DHT22;30340;52.004;5.908;2023-02-18T16:49:14;12.20;91.50
42037;DHT22;30340;52.004;5.908;2023-02-18T16:51:40;12.20;91.40
42037;DHT22;30340;52.004;5.908;2023-02-18T16:54:13;12.20;91.40
42037;DHT22;30340;52.004;5.908;2023-02-18T16:56:39;12.20;91.40
42037;DHT22;30340;52.004;5.908;2023-02-18T16:59:05;12.20;91.40
42037;DHT22;30340;52.004;5.908;2023-02-18T17:01:37;12.20;91.50
42037;DHT22;30340;52.004;5.908;2023-02-18T17:04:09;12.20;91.50
42037;DHT22;30340;52.004;5.908;2023-02-18T17:06:35;12.20;91.50
42037;DHT22;30340;52.004;5.908;2023-02-18T17:09:01;12.20;91.50
42037;DHT22;30340;52.004;5.908;2023-02-18T17:11:31;12.20;91.50
42037;DHT22;30340;52.004;5.908;2023-02-18T17:13:58;12.20;91.50
42037;DHT22;30340;52.004;5.908;2023-02-18T17:16:25;12.20;91.40
42037;DHT22;30340;52.004;5.908;2023-02-18T17:18:51;12.20;91.40
42037;DHT22;30340;52.004;5.908;2023-02-18T17:21:20;12.10;91.40
42037;DHT22;30340;52.004;5.908;2023-02-18T17:23:47;12.10;91.40
42037;DHT22;30340;52.004;5.908;2023-02-18T17:26:24;12.10;91.50
42037;DHT22;30340;52.004;5.908;2023-02-18T17:28:50;12.10;91.50
42037;DHT22;30340;52.004;5.908;2023-02-18T17:31:28;12.00;91.50
42037;DHT22;30340;52.004;5.908;2023-02-18T17:33:59;12.00;91.60
42037;DHT22;30340;52.004;5.908;2023-02-18T17:36:25;12.00;91.60
42037;DHT22;30340;52.004;5.908;2023-02-18T17:38:51;12.00;91.60
42037;DHT22;30340;52.004;5.908;2023-02-18T17:41:16;12.00;91.60
42037;DHT22;30340;52.004;5.908;2023-02-18T17:43:42;12.00;91.60
42037;DHT22;30340;52.004;5.908;2023-02-18T17:46:12;12.00;91.60
42037;DHT22;30340;52.004;5.908;2023-02-18T17:48:39;12.00;91.60
42037;DHT22;30340;52.004;5.908;2023-02-18T17:51:05;12.00;91.60
42037;DHT22;30340;52.004;5.908;2023-02-18T17:53:33;12.00;91.60
42037;DHT22;30340;52.004;5.908;2023-02-18T17:55:58;12.00;91.60
42037;DHT22;30340;52.004;5.908;2023-02-18T17:58:24;12.00;91.50
42037;DHT22;30340;52.004;5.908;2023-02-18T18:00:53;12.10;91.50
42037;DHT22;30340;52.004;5.908;2023-02-18T18:03:19;12.00;91.50
42037;DHT22;30340;52.004;5.908;2023-02-18T18:05:47;12.00;91.50
42037;DHT22;30340;52.004;5.908;2023-02-18T18:08:13;12.00;91.50
42037;DHT22;30340;52.004;5.908;2023-02-18T18:10:44;11.90;91.80
42037;DHT22;30340;52.004;5.908;2023-02-18T18:13:18;12.00;91.60
42037;DHT22;30340;52.004;5.908;2023-02-18T18:15:44;12.00;91.60